Time;durP1;ratioP1;P1;durP2;ratioP2;P2;SDS_P1;SDS_P2;PMS_P1;PMS_P2;Temp;Humidity;BMP_temperature;BMP_pressure;BME280_temperature;BME280_humidity;BME280_pressure;Samples;Min_cycle;Max_cycle;Signal;HPM_P1;HPM_P2
2022/08/20 00:00:52;;;;;;;4.27;2.80;;;;;;;;;;5090381;28;21015;-81
2022/08/20 00:03:26;;;;;;;4.10;3.07;;;;;;;;;;5093099;28;20999;-83
2022/08/20 00:05:55;;;;;;;3.77;3.47;;;;;;;;;;5093299;28;20987;-83
2022/08/20 00:08:23;;;;;;;3.97;2.83;;;;;;;;;;5086704;28;20442;-83
2022/08/20 00:10:53;;;;;;;4.20;2.97;;;;;;;;;;5088632;28;21015;-85
2022/08/20 00:13:21;;;;;;;3.90;2.90;;;;;;;;;;5091970;28;20443;-83
2022/08/20 00:15:48;;;;;;;5.30;3.00;;;;;;;;;;5090330;28;20455;-87
2022/08/20 00:18:16;;;;;;;5.53;3.43;;;;;;;;;;5091953;28;21024;-86
2022/08/20 00:20:45;;;;;;;3.90;3.00;;;;;;;;;;5092443;28;20447;-84
2022/08/20 00:23:12;;;;;;;3.30;3.00;;;;;;;;;;5092293;28;20482;-85
2022/08/20 00:25:40;;;;;;;3.40;3.10;;;;;;;;;;5093880;28;20877;-79
2022/08/20 00:28:09;;;;;;;3.53;3.23;;;;;;;;;;5093171;28;20535;-83
2022/08/20 00:30:37;;;;;;;4.10;3.70;;;;;;;;;;5087210;28;20518;-85
2022/08/20 00:33:05;;;;;;;3.90;3.33;;;;;;;;;;5088633;28;20427;-82
2022/08/20 00:35:34;;;;;;;4.10;3.63;;;;;;;;;;5089892;28;20579;-84
2022/08/20 00:38:01;;;;;;;3.80;3.50;;;;;;;;;;5090360;28;20447;-82
2022/08/20 00:40:30;;;;;;;4.00;3.70;;;;;;;;;;5090776;28;20781;-85
2022/08/20 00:42:59;;;;;;;3.77;3.27;;;;;;;;;;5090771;28;20483;-85
2022/08/20 00:45:29;;;;;;;3.50;3.20;;;;;;;;;;5090787;28;20562;-82
2022/08/20 00:47:56;;;;;;;4.07;3.67;;;;;;;;;;5094831;28;20539;-83
2022/08/20 00:50:26;;;;;;;3.83;3.43;;;;;;;;;;5093161;28;21004;-85
2022/08/20 00:52:54;;;;;;;3.53;3.20;;;;;;;;;;5087583;28;20435;-85
2022/08/20 00:55:23;;;;;;;5.00;3.70;;;;;;;;;;5088198;28;20459;-84
2022/08/20 00:57:53;;;;;;;3.60;3.30;;;;;;;;;;5091168;28;20439;-85
2022/08/20 01:00:22;;;;;;;5.83;3.57;;;;;;;;;;5090244;28;20518;-85
2022/08/20 01:02:50;;;;;;;3.30;3.00;;;;;;;;;;5091626;28;20483;-86
2022/08/20 01:05:17;;;;;;;3.23;2.93;;;;;;;;;;5091757;28;20477;-85
2022/08/20 01:07:45;;;;;;;5.17;2.53;;;;;;;;;;5091878;28;20466;-85
2022/08/20 01:10:15;;;;;;;3.60;3.10;;;;;;;;;;5093617;28;20526;-83
2022/08/20 01:12:45;;;;;;;3.10;2.90;;;;;;;;;;5095436;28;20439;-83
2022/08/20 01:15:14;;;;;;;3.97;2.77;;;;;;;;;;5091491;28;20460;-83
2022/08/20 01:17:44;;;;;;;3.60;3.20;;;;;;;;;;5091946;28;20450;-83
2022/08/20 01:20:16;;;;;;;3.40;3.10;;;;;;;;;;5095344;28;20439;-85
2022/08/20 01:25:34;;;;;;;5.80;2.83;;;;;;;;;;5094864;28;20474;-87
2022/08/20 01:28:02;;;;;;;2.93;2.57;;;;;;;;;;5095683;28;20469;-87
2022/08/20 01:30:29;;;;;;;5.90;3.07;;;;;;;;;;5096145;28;20535;-82
2022/08/20 01:32:57;;;;;;;2.50;2.30;;;;;;;;;;5097177;28;20446;-84
2022/08/20 01:35:25;;;;;;;4.07;3.03;;;;;;;;;;5094809;28;21030;-83
2022/08/20 01:37:53;;;;;;;2.73;2.40;;;;;;;;;;5090851;28;20435;-81
2022/08/20 01:40:24;;;;;;;2.80;2.60;;;;;;;;;;5091928;28;20527;-84
2022/08/20 01:42:51;;;;;;;3.37;2.53;;;;;;;;;;5093488;28;20567;-85
2022/08/20 01:45:20;;;;;;;3.73;2.77;;;;;;;;;;5094683;28;20460;-86
2022/08/20 01:47:47;;;;;;;3.00;2.70;;;;;;;;;;5094651;28;21036;-84
2022/08/20 01:50:27;;;;;;;;;;;;;;;;;;;;;
2022/08/20 01:52:58;;;;;;;3.20;2.63;;;;;;;;;;5095645;28;20454;-83
2022/08/20 01:55:26;;;;;;;2.83;2.37;;;;;;;;;;5095711;28;20490;-80
2022/08/20 01:57:53;;;;;;;2.63;2.43;;;;;;;;;;5094566;28;20449;-83
2022/08/20 02:00:22;;;;;;;4.10;2.67;;;;;;;;;;5090034;28;20434;-79
2022/08/20 02:02:49;;;;;;;3.33;2.73;;;;;;;;;;5091629;28;20494;-83
2022/08/20 02:05:17;;;;;;;2.80;2.60;;;;;;;;;;5094327;28;20451;-79
2022/08/20 02:07:44;;;;;;;2.90;2.60;;;;;;;;;;5094396;28;20851;-80
2022/08/20 02:10:13;;;;;;;2.90;2.60;;;;;;;;;;5094555;28;20526;-83
2022/08/20 02:12:41;;;;;;;4.73;3.70;;;;;;;;;;5093788;28;20879;-81
2022/08/20 02:15:09;;;;;;;4.40;3.37;;;;;;;;;;5094941;28;20482;-86
2022/08/20 02:17:38;;;;;;;6.00;3.97;;;;;;;;;;5096663;28;20435;-85
2022/08/20 02:20:08;;;;;;;3.77;3.47;;;;;;;;;;5094032;28;20518;-87
2022/08/20 02:22:38;;;;;;;6.47;3.40;;;;;;;;;;5088456;28;20724;-83
2022/08/20 02:25:05;;;;;;;4.80;3.20;;;;;;;;;;5090873;28;20447;-86
2022/08/20 02:27:33;;;;;;;3.70;3.40;;;;;;;;;;5093719;28;20530;-83
2022/08/20 02:30:01;;;;;;;4.27;3.70;;;;;;;;;;5092906;28;20869;-84
2022/08/20 02:32:29;;;;;;;3.87;3.47;;;;;;;;;;5094058;28;20804;-85
2022/08/20 02:34:57;;;;;;;3.20;2.77;;;;;;;;;;5094187;28;20478;-82
2022/08/20 02:37:24;;;;;;;3.60;3.30;;;;;;;;;;5094747;28;20451;-84
2022/08/20 02:39:52;;;;;;;5.10;4.43;;;;;;;;;;5096092;28;20450;-80
2022/08/20 02:42:19;;;;;;;4.93;3.70;;;;;;;;;;5094041;28;21144;-83
2022/08/20 02:44:46;;;;;;;4.63;4.13;;;;;;;;;;5089398;28;21006;-81
2022/08/20 02:47:13;;;;;;;8.43;3.60;;;;;;;;;;5090728;28;21104;-84
2022/08/20 02:49:41;;;;;;;7.50;4.50;;;;;;;;;;5093588;28;20501;-82
2022/08/20 02:52:09;;;;;;;4.20;3.80;;;;;;;;;;5093540;28;20487;-83
2022/08/20 02:54:37;;;;;;;6.30;4.20;;;;;;;;;;5093401;28;20459;-82
2022/08/20 02:57:04;;;;;;;3.90;3.60;;;;;;;;;;5094338;28;20791;-87
2022/08/20 02:59:32;;;;;;;4.60;4.10;;;;;;;;;;5094485;28;20454;-83
2022/08/20 03:02:00;;;;;;;5.00;4.23;;;;;;;;;;5095737;28;20531;-84
2022/08/20 03:04:27;;;;;;;4.60;3.67;;;;;;;;;;5093645;28;21919;-86
2022/08/20 03:06:54;;;;;;;9.33;4.07;;;;;;;;;;5089172;28;20534;-82
2022/08/20 03:09:22;;;;;;;3.97;3.63;;;;;;;;;;5089871;28;20829;-83
2022/08/20 03:11:50;;;;;;;4.57;4.03;;;;;;;;;;5093119;28;20532;-81
2022/08/20 03:14:17;;;;;;;4.40;4.00;;;;;;;;;;5093110;28;20530;-80
2022/08/20 03:16:47;;;;;;;5.27;4.30;;;;;;;;;;5093344;28;20440;-83
2022/08/20 03:19:17;;;;;;;4.10;3.67;;;;;;;;;;5093676;28;20526;-86
2022/08/20 03:21:48;;;;;;;3.93;3.63;;;;;;;;;;5093328;28;20861;-84
2022/08/20 03:24:15;;;;;;;4.00;3.60;;;;;;;;;;5095027;28;20578;-86
2022/08/20 03:26:43;;;;;;;4.90;4.13;;;;;;;;;;5093567;28;20908;-83
2022/08/20 03:29:11;;;;;;;4.63;3.67;;;;;;;;;;5088561;28;20428;-82
2022/08/20 03:31:38;;;;;;;3.70;3.40;;;;;;;;;;5088638;28;20506;-83
2022/08/20 03:34:06;;;;;;;4.63;3.90;;;;;;;;;;5092267;28;20550;-83
2022/08/20 03:36:33;;;;;;;5.30;4.00;;;;;;;;;;5091654;28;20571;-82
2022/08/20 03:39:02;;;;;;;4.50;3.87;;;;;;;;;;5092864;28;20869;-84
2022/08/20 03:41:30;;;;;;;5.00;3.70;;;;;;;;;;5093049;28;20928;-84
2022/08/20 03:43:59;;;;;;;4.00;3.60;;;;;;;;;;5093123;28;20483;-81
2022/08/20 03:46:27;;;;;;;3.93;3.63;;;;;;;;;;5094467;28;20977;-84
2022/08/20 03:48:55;;;;;;;4.63;3.50;;;;;;;;;;5093219;28;20492;-84
2022/08/20 03:51:22;;;;;;;4.90;4.40;;;;;;;;;;5088110;28;21847;-82
2022/08/20 03:53:49;;;;;;;3.40;3.10;;;;;;;;;;5089215;28;20436;-79
2022/08/20 03:56:17;;;;;;;5.20;4.07;;;;;;;;;;5092305;28;20459;-80
2022/08/20 03:58:45;;;;;;;4.30;3.10;;;;;;;;;;5092238;28;20931;-85
2022/08/20 04:01:13;;;;;;;4.40;3.40;;;;;;;;;;5092126;28;20525;-81
2022/08/20 04:03:41;;;;;;;3.70;3.40;;;;;;;;;;5093072;28;20567;-83
2022/08/20 04:06:08;;;;;;;3.80;3.33;;;;;;;;;;5092881;28;20486;-83
2022/08/20 04:08:36;;;;;;;5.10;4.00;;;;;;;;;;5094612;28;20431;-86
2022/08/20 04:11:04;;;;;;;6.77;4.40;;;;;;;;;;5093148;28;20497;-82
2022/08/20 04:13:31;;;;;;;6.93;4.50;;;;;;;;;;5086588;28;20427;-83
2022/08/20 04:16:02;;;;;;;4.87;4.37;;;;;;;;;;5088691;28;20451;-87
2022/08/20 04:18:31;;;;;;;6.67;4.70;;;;;;;;;;5090934;28;20851;-85
2022/08/20 04:20:58;;;;;;;5.47;5.03;;;;;;;;;;5092080;28;20454;-85
2022/08/20 04:23:25;;;;;;;5.47;4.97;;;;;;;;;;5091949;28;21010;-80
2022/08/20 04:25:53;;;;;;;6.10;5.50;;;;;;;;;;5092642;28;20546;-86
2022/08/20 04:28:23;;;;;;;5.97;5.20;;;;;;;;;;5092529;28;20447;-81
2022/08/20 04:30:51;;;;;;;5.20;4.70;;;;;;;;;;5094637;28;20768;-84
2022/08/20 04:33:18;;;;;;;6.10;4.50;;;;;;;;;;5092612;28;20443;-83
2022/08/20 04:35:47;;;;;;;4.97;4.57;;;;;;;;;;5087516;28;20463;-86
2022/08/20 04:38:18;;;;;;;5.50;5.00;;;;;;;;;;5087284;28;20439;-80
2022/08/20 04:43:27;;;;;;;4.33;3.93;;;;;;;;;;5075851;28;20527;-84
2022/08/20 04:45:57;;;;;;;4.37;3.97;;;;;;;;;;5091808;28;20812;-81
2022/08/20 04:48:25;;;;;;;4.53;3.37;;;;;;;;;;5092300;28;20431;-84
2022/08/20 04:50:54;;;;;;;4.30;3.90;;;;;;;;;;5092531;28;20465;-83
2022/08/20 04:53:23;;;;;;;4.10;3.60;;;;;;;;;;5092867;28;20435;-85
2022/08/20 04:55:51;;;;;;;3.83;3.53;;;;;;;;;;5091775;28;20449;-83
2022/08/20 04:58:19;;;;;;;3.87;3.57;;;;;;;;;;5087371;28;20527;-82
2022/08/20 05:00:48;;;;;;;4.47;4.10;;;;;;;;;;5088785;28;20427;-84
2022/08/20 05:03:15;;;;;;;4.70;4.07;;;;;;;;;;5091560;28;20444;-84
2022/08/20 05:05:43;;;;;;;5.00;4.60;;;;;;;;;;5091535;28;20991;-84
2022/08/20 05:08:12;;;;;;;4.53;4.13;;;;;;;;;;5085142;28;20467;-84
2022/08/20 05:10:40;;;;;;;5.43;4.93;;;;;;;;;;5089510;28;20538;-82
2022/08/20 05:13:08;;;;;;;5.67;5.17;;;;;;;;;;5092081;28;21005;-85
2022/08/20 05:15:36;;;;;;;6.27;5.40;;;;;;;;;;5092175;28;21047;-86
2022/08/20 05:18:06;;;;;;;9.07;8.27;;;;;;;;;;5091932;28;20427;-84
2022/08/20 05:20:38;;;;;;;8.27;7.47;;;;;;;;;;5086306;28;20432;-85
2022/08/20 05:23:06;;;;;;;9.13;7.80;;;;;;;;;;5087665;28;20430;-85
2022/08/20 05:25:35;;;;;;;10.50;9.33;;;;;;;;;;5091176;28;20550;-86
2022/08/20 05:28:08;;;;;;;15.53;11.47;;;;;;;;;;5091239;28;20493;-87
2022/08/20 05:30:36;;;;;;;13.80;12.40;;;;;;;;;;5091407;28;20733;-86
2022/08/20 05:33:04;;;;;;;13.60;12.30;;;;;;;;;;5091935;28;20872;-86
2022/08/20 05:35:33;;;;;;;13.40;12.10;;;;;;;;;;5091761;28;20557;-83
2022/08/20 05:38:00;;;;;;;12.83;11.60;;;;;;;;;;5091690;28;20465;-86
2022/08/20 05:40:28;;;;;;;12.87;11.50;;;;;;;;;;5091872;28;20440;-84
2022/08/20 05:42:57;;;;;;;12.70;11.50;;;;;;;;;;5087321;28;20412;-86
2022/08/20 05:45:24;;;;;;;12.57;11.37;;;;;;;;;;5088147;28;20481;-84
2022/08/20 05:47:51;;;;;;;13.77;11.50;;;;;;;;;;5091156;28;20439;-85
2022/08/20 05:50:19;;;;;;;14.07;11.63;;;;;;;;;;5091202;28;20443;-84
2022/08/20 05:52:46;;;;;;;16.47;12.93;;;;;;;;;;5091399;28;20436;-84
2022/08/20 05:55:13;;;;;;;13.87;12.40;;;;;;;;;;5091585;28;20478;-85
2022/08/20 05:57:41;;;;;;;14.97;13.37;;;;;;;;;;5091638;28;20895;-84
2022/08/20 06:00:12;;;;;;;15.77;13.17;;;;;;;;;;5095110;28;20447;-85
2022/08/20 06:05:21;;;;;;;15.03;13.43;;;;;;;;;;5089976;28;20498;-84
2022/08/20 06:07:49;;;;;;;17.37;13.83;;;;;;;;;;5091790;28;20442;-85
2022/08/20 06:10:17;;;;;;;18.70;14.20;;;;;;;;;;5094323;28;20492;-85
2022/08/20 06:12:44;;;;;;;17.50;13.90;;;;;;;;;;5094252;28;20449;-85
2022/08/20 06:15:13;;;;;;;15.97;13.20;;;;;;;;;;5094467;28;20455;-86
2022/08/20 06:17:40;;;;;;;15.07;13.57;;;;;;;;;;5094881;28;20530;-84
2022/08/20 06:20:09;;;;;;;14.63;13.20;;;;;;;;;;5094796;28;20934;-84
2022/08/20 06:22:36;;;;;;;15.80;14.20;;;;;;;;;;5095274;28;20445;-83
2022/08/20 06:25:05;;;;;;;17.77;13.73;;;;;;;;;;5094236;28;20497;-83
2022/08/20 06:27:32;;;;;;;15.87;14.20;;;;;;;;;;5088875;28;20435;-84
2022/08/20 06:30:00;;;;;;;15.10;13.77;;;;;;;;;;5091332;28;20432;-83
2022/08/20 06:32:28;;;;;;;13.30;11.90;;;;;;;;;;5094073;28;20530;-84
2022/08/20 06:34:56;;;;;;;14.47;13.07;;;;;;;;;;5093710;28;20558;-84
2022/08/20 06:37:24;;;;;;;17.40;15.60;;;;;;;;;;5094001;28;20535;-83
2022/08/20 06:39:52;;;;;;;15.50;13.90;;;;;;;;;;5093198;28;20440;-83
2022/08/20 06:42:19;;;;;;;15.47;13.87;;;;;;;;;;5095040;28;20542;-82
2022/08/20 06:44:48;;;;;;;15.27;13.53;;;;;;;;;;5094742;28;20844;-83
2022/08/20 06:47:16;;;;;;;13.73;12.30;;;;;;;;;;5094223;28;20431;-83
2022/08/20 06:49:44;;;;;;;12.77;11.47;;;;;;;;;;5089711;28;20805;-83
2022/08/20 06:52:14;;;;;;;15.23;13.80;;;;;;;;;;5089456;28;20796;-82
2022/08/20 06:54:41;;;;;;;15.67;13.70;;;;;;;;;;5093474;28;20463;-83
2022/08/20 06:57:10;;;;;;;12.80;11.67;;;;;;;;;;5093541;28;20522;-82
2022/08/20 06:59:37;;;;;;;16.57;12.37;;;;;;;;;;5093744;28;20534;-82
2022/08/20 07:02:05;;;;;;;12.60;11.40;;;;;;;;;;5093864;28;20526;-81
2022/08/20 07:04:32;;;;;;;12.90;11.63;;;;;;;;;;5093839;28;20536;-82
2022/08/20 07:07:00;;;;;;;13.07;11.67;;;;;;;;;;5095539;28;20526;-82
2022/08/20 07:09:28;;;;;;;13.00;11.70;;;;;;;;;;5093337;28;20511;-81
2022/08/20 07:11:55;;;;;;;12.90;11.70;;;;;;;;;;5089076;28;20438;-83
2022/08/20 07:14:23;;;;;;;11.03;9.90;;;;;;;;;;5090216;28;20534;-83
2022/08/20 07:16:50;;;;;;;11.80;10.57;;;;;;;;;;5093075;28;20443;-82
2022/08/20 07:19:17;;;;;;;10.87;9.77;;;;;;;;;;5092920;28;20530;-82
2022/08/20 07:21:46;;;;;;;13.77;12.20;;;;;;;;;;5092329;28;20439;-82
2022/08/20 07:24:15;;;;;;;12.07;11.00;;;;;;;;;;5093530;28;20450;-82
2022/08/20 07:26:42;;;;;;;11.27;10.00;;;;;;;;;;5093490;28;20455;-83
2022/08/20 07:29:09;;;;;;;14.20;11.70;;;;;;;;;;5095273;28;20467;-82
2022/08/20 07:34:18;;;;;;;14.47;11.23;;;;;;;;;;5087773;28;20443;-83
2022/08/20 07:36:47;;;;;;;12.63;11.33;;;;;;;;;;5085122;28;20541;-83
2022/08/20 07:39:15;;;;;;;13.73;12.33;;;;;;;;;;5072022;28;20535;-85
2022/08/20 07:41:43;;;;;;;16.10;12.17;;;;;;;;;;5076200;28;20519;-84
2022/08/20 07:44:10;;;;;;;19.53;13.23;;;;;;;;;;5092337;28;20879;-83
2022/08/20 07:46:37;;;;;;;13.93;11.40;;;;;;;;;;5093284;28;20433;-85
2022/08/20 07:49:08;;;;;;;12.83;11.40;;;;;;;;;;5080173;28;20908;-83
2022/08/20 07:51:36;;;;;;;12.53;11.30;;;;;;;;;;5083943;28;20489;-83
2022/08/20 07:54:03;;;;;;;9.83;8.83;;;;;;;;;;5087550;28;20505;-81
2022/08/20 07:56:32;;;;;;;11.83;9.90;;;;;;;;;;5072431;28;20929;-85
2022/08/20 07:59:00;;;;;;;11.17;9.97;;;;;;;;;;5091220;28;20530;-84
2022/08/20 08:01:29;;;;;;;11.43;10.27;;;;;;;;;;5092662;28;20866;-85
2022/08/20 08:03:57;;;;;;;11.37;10.17;;;;;;;;;;5091839;28;20522;-85
2022/08/20 08:06:26;;;;;;;11.23;9.17;;;;;;;;;;5090858;28;20616;-83
2022/08/20 08:08:53;;;;;;;10.13;9.13;;;;;;;;;;5082097;28;20460;-82
2022/08/20 08:11:21;;;;;;;10.43;9.47;;;;;;;;;;5073681;28;20523;-82
2022/08/20 08:13:50;;;;;;;12.70;9.03;;;;;;;;;;5086559;28;20942;-84
2022/08/20 08:16:18;;;;;;;14.67;10.73;;;;;;;;;;5087624;28;20999;-84
2022/08/20 08:18:48;;;;;;;9.47;8.50;;;;;;;;;;5076529;28;20858;-82
2022/08/20 08:21:16;;;;;;;9.13;8.27;;;;;;;;;;5068633;28;20484;-82
2022/08/20 08:23:44;;;;;;;10.23;8.60;;;;;;;;;;5070978;28;20457;-81
2022/08/20 08:26:12;;;;;;;10.90;7.90;;;;;;;;;;5071762;28;20980;-81
2022/08/20 08:28:40;;;;;;;11.33;8.50;;;;;;;;;;5072037;28;20475;-83
2022/08/20 08:31:09;;;;;;;10.37;8.93;;;;;;;;;;5073209;28;20873;-83
2022/08/20 08:33:37;;;;;;;12.60;8.43;;;;;;;;;;5083792;28;20562;-82
2022/08/20 08:36:05;;;;;;;13.43;8.53;;;;;;;;;;5087324;28;20471;-84
2022/08/20 08:38:33;;;;;;;8.20;7.40;;;;;;;;;;5081777;28;20451;-86
2022/08/20 08:41:04;;;;;;;11.57;6.10;;;;;;;;;;5074927;28;20965;-81
2022/08/20 08:43:31;;;;;;;9.07;6.97;;;;;;;;;;5090186;28;20912;-80
2022/08/20 08:46:00;;;;;;;9.50;6.70;;;;;;;;;;5091561;28;20505;-83
2022/08/20 08:48:33;;;;;;;8.83;7.63;;;;;;;;;;5092830;28;20621;-81
2022/08/20 08:51:01;;;;;;;9.10;6.20;;;;;;;;;;5089560;28;20439;-82
2022/08/20 08:53:32;;;;;;;7.77;6.73;;;;;;;;;;5072633;28;20471;-81
2022/08/20 08:55:59;;;;;;;8.63;7.63;;;;;;;;;;5073805;28;20455;-82
2022/08/20 08:58:26;;;;;;;8.13;7.20;;;;;;;;;;5082880;28;20431;-81
2022/08/20 09:00:54;;;;;;;9.90;7.40;;;;;;;;;;5087427;28;20459;-82
2022/08/20 09:03:30;;;;;;;9.83;7.50;;;;;;;;;;5089895;28;20936;-81
2022/08/20 09:06:00;;;;;;;8.87;7.60;;;;;;;;;;5089875;28;20497;-80
2022/08/20 09:08:29;;;;;;;8.30;7.50;;;;;;;;;;5090480;28;20438;-79
2022/08/20 09:11:01;;;;;;;6.87;6.17;;;;;;;;;;5092224;28;20811;-87
2022/08/20 09:13:28;;;;;;;11.07;8.00;;;;;;;;;;5091094;28;20866;-84
2022/08/20 09:15:55;;;;;;;10.73;8.20;;;;;;;;;;5093687;28;20561;-85
2022/08/20 09:18:22;;;;;;;9.83;8.80;;;;;;;;;;5093991;28;20442;-82
2022/08/20 09:20:49;;;;;;;10.60;7.40;;;;;;;;;;5090369;28;20850;-81
2022/08/20 09:23:18;;;;;;;10.53;9.07;;;;;;;;;;5087547;28;20436;-83
2022/08/20 09:25:46;;;;;;;12.17;8.60;;;;;;;;;;5089787;28;20569;-85
2022/08/20 09:28:13;;;;;;;8.60;7.73;;;;;;;;;;5091039;28;20920;-80
2022/08/20 09:30:40;;;;;;;13.07;8.23;;;;;;;;;;5091679;28;20559;-81
2022/08/20 09:33:07;;;;;;;11.90;8.90;;;;;;;;;;5091845;28;20440;-83
2022/08/20 09:35:35;;;;;;;9.40;7.80;;;;;;;;;;5095233;28;20499;-85
2022/08/20 09:38:02;;;;;;;12.70;9.50;;;;;;;;;;5096407;28;20983;-85
2022/08/20 09:40:31;;;;;;;12.27;9.00;;;;;;;;;;5097326;28;20487;-85
2022/08/20 09:42:58;;;;;;;13.17;10.37;;;;;;;;;;5093506;28;20527;-80
2022/08/20 09:45:25;;;;;;;9.60;8.60;;;;;;;;;;5090616;28;20859;-82
2022/08/20 09:47:53;;;;;;;11.87;10.57;;;;;;;;;;5092140;28;20441;-80
2022/08/20 09:50:20;;;;;;;10.80;9.70;;;;;;;;;;5094829;28;20989;-80
2022/08/20 09:52:49;;;;;;;14.13;10.97;;;;;;;;;;5094893;28;20530;-83
2022/08/20 09:55:22;;;;;;;11.17;9.47;;;;;;;;;;5094128;28;20467;-81
2022/08/20 09:57:52;;;;;;;13.03;10.57;;;;;;;;;;5093916;28;20461;-82
2022/08/20 10:00:20;;;;;;;10.57;9.57;;;;;;;;;;5095912;28;20852;-81
2022/08/20 10:02:48;;;;;;;11.83;10.63;;;;;;;;;;5096733;28;21007;-81
2022/08/20 10:05:15;;;;;;;11.83;10.40;;;;;;;;;;5091463;28;20548;-81
2022/08/20 10:07:43;;;;;;;18.27;10.87;;;;;;;;;;5089867;28;20431;-79
2022/08/20 10:10:11;;;;;;;9.50;8.53;;;;;;;;;;5092279;28;20497;-81
2022/08/20 10:12:40;;;;;;;12.13;8.60;;;;;;;;;;5094546;28;20439;-80
2022/08/20 10:15:10;;;;;;;7.60;6.80;;;;;;;;;;5094460;28;20458;-80
2022/08/20 10:17:38;;;;;;;8.70;7.27;;;;;;;;;;5094695;28;20443;-82
2022/08/20 10:20:06;;;;;;;9.50;7.03;;;;;;;;;;5094415;28;20891;-81
2022/08/20 10:22:33;;;;;;;7.93;7.17;;;;;;;;;;5094180;28;20443;-80
2022/08/20 10:25:00;;;;;;;9.50;7.80;;;;;;;;;;5096317;28;20464;-81
2022/08/20 10:27:28;;;;;;;13.27;6.87;;;;;;;;;;5092509;28;20424;-80
2022/08/20 10:29:55;;;;;;;10.53;8.37;;;;;;;;;;5089317;28;20825;-80
2022/08/20 10:32:23;;;;;;;10.03;7.70;;;;;;;;;;5092004;28;20639;-79
2022/08/20 10:34:51;;;;;;;7.73;6.87;;;;;;;;;;5093462;28;20475;-79
2022/08/20 10:37:19;;;;;;;10.40;7.33;;;;;;;;;;5075555;28;20488;-79
2022/08/20 10:39:47;;;;;;;8.97;8.07;;;;;;;;;;5071986;28;20938;-81
2022/08/20 10:42:14;;;;;;;9.47;7.63;;;;;;;;;;5073251;28;20436;-79
2022/08/20 10:44:41;;;;;;;9.40;7.23;;;;;;;;;;5073598;28;20885;-79
2022/08/20 10:47:18;;;;;;;10.63;7.17;;;;;;;;;;5088402;28;20482;-81
2022/08/20 10:49:48;;;;;;;11.67;7.70;;;;;;;;;;5087992;28;20924;-79
2022/08/20 10:52:15;;;;;;;7.67;6.83;;;;;;;;;;5090308;28;20455;-80
2022/08/20 10:54:43;;;;;;;10.63;8.00;;;;;;;;;;5079505;28;20567;-79
2022/08/20 10:57:13;;;;;;;9.30;6.37;;;;;;;;;;5071938;28;20494;-80
2022/08/20 10:59:41;;;;;;;9.30;6.47;;;;;;;;;;5073682;28;20984;-81
2022/08/20 11:02:08;;;;;;;11.27;6.93;;;;;;;;;;5073241;28;21032;-80
2022/08/20 11:04:36;;;;;;;6.57;5.70;;;;;;;;;;5073499;28;20510;-82
2022/08/20 11:07:17;;;;;;;8.70;6.40;;;;;;;;;;5074029;28;20491;-80
2022/08/20 11:09:47;;;;;;;12.03;7.40;;;;;;;;;;5084239;28;20550;-82
2022/08/20 11:12:15;;;;;;;9.47;5.67;;;;;;;;;;5088358;28;20795;-80
2022/08/20 11:14:42;;;;;;;7.50;6.23;;;;;;;;;;5092324;28;20491;-85
2022/08/20 11:17:10;;;;;;;7.93;5.97;;;;;;;;;;5093098;28;20932;-85
2022/08/20 11:19:39;;;;;;;10.83;6.27;;;;;;;;;;5090962;28;20882;-85
2022/08/20 11:22:06;;;;;;;9.63;6.20;;;;;;;;;;5093866;28;20875;-88
2022/08/20 11:24:33;;;;;;;8.07;5.97;;;;;;;;;;5093544;28;20569;-88
2022/08/20 11:27:02;;;;;;;7.27;4.60;;;;;;;;;;5093045;28;20567;-83
2022/08/20 11:29:29;;;;;;;5.70;3.93;;;;;;;;;;5074060;28;20988;-84
2022/08/20 11:31:56;;;;;;;10.70;4.70;;;;;;;;;;5086679;28;20427;-85
2022/08/20 11:34:24;;;;;;;7.27;4.73;;;;;;;;;;5086839;28;20502;-83
2022/08/20 11:36:51;;;;;;;6.93;5.03;;;;;;;;;;5092293;28;20511;-85
2022/08/20 11:39:18;;;;;;;5.70;4.53;;;;;;;;;;5093293;28;20449;-85
2022/08/20 11:41:45;;;;;;;7.97;5.60;;;;;;;;;;5089604;28;20443;-85
2022/08/20 11:44:14;;;;;;;7.40;5.20;;;;;;;;;;5073033;28;20526;-85
2022/08/20 11:46:41;;;;;;;8.27;5.27;;;;;;;;;;5070393;28;20575;-84
2022/08/20 11:49:09;;;;;;;8.00;5.30;;;;;;;;;;5084620;28;20518;-85
2022/08/20 11:51:36;;;;;;;9.90;6.03;;;;;;;;;;5088364;28;20523;-85
2022/08/20 11:54:04;;;;;;;6.70;6.10;;;;;;;;;;5091688;28;20542;-85
2022/08/20 11:56:31;;;;;;;10.00;6.43;;;;;;;;;;5088056;28;20816;-84
2022/08/20 11:58:58;;;;;;;7.53;6.50;;;;;;;;;;5087118;28;21050;-84
2022/08/20 12:01:27;;;;;;;9.60;6.80;;;;;;;;;;5092099;28;20526;-85
2022/08/20 12:03:54;;;;;;;8.73;5.90;;;;;;;;;;5081210;28;20555;-83
2022/08/20 12:06:21;;;;;;;8.23;5.90;;;;;;;;;;5073767;28;20995;-83
2022/08/20 12:08:49;;;;;;;7.07;6.27;;;;;;;;;;5073918;28;20532;-84
2022/08/20 12:11:16;;;;;;;5.90;5.30;;;;;;;;;;5084584;28;20486;-85
2022/08/20 12:13:43;;;;;;;7.83;7.03;;;;;;;;;;5085001;28;20568;-84
2022/08/20 12:16:10;;;;;;;8.30;6.63;;;;;;;;;;5089401;28;20495;-85
2022/08/20 12:18:39;;;;;;;7.60;6.20;;;;;;;;;;5091854;28;20520;-84
2022/08/20 12:21:06;;;;;;;7.10;6.07;;;;;;;;;;5091747;28;20541;-85
2022/08/20 12:23:33;;;;;;;9.90;7.23;;;;;;;;;;5092527;28;20439;-85
2022/08/20 12:26:25;;;;;;;8.50;6.43;;;;;;;;;;5092313;28;20478;-85
2022/08/20 12:28:56;;;;;;;7.87;7.13;;;;;;;;;;5084962;28;20866;-85
2022/08/20 12:31:23;;;;;;;8.67;7.10;;;;;;;;;;5094444;28;20800;-82
2022/08/20 12:33:52;;;;;;;10.70;7.63;;;;;;;;;;5091716;28;20559;-80
2022/08/20 12:36:19;;;;;;;10.53;7.10;;;;;;;;;;5083701;28;20470;-83
2022/08/20 12:38:46;;;;;;;8.07;6.70;;;;;;;;;;5085448;28;20543;-82
2022/08/20 12:41:14;;;;;;;7.80;6.60;;;;;;;;;;5088395;28;20496;-83
2022/08/20 12:43:41;;;;;;;8.43;7.27;;;;;;;;;;5088026;28;20446;-83
2022/08/20 12:46:08;;;;;;;8.50;7.30;;;;;;;;;;5087701;28;20485;-82
2022/08/20 12:48:35;;;;;;;8.87;7.07;;;;;;;;;;5088374;28;20436;-84
2022/08/20 12:51:04;;;;;;;11.60;6.97;;;;;;;;;;5088566;28;21051;-81
2022/08/20 12:53:31;;;;;;;7.90;7.10;;;;;;;;;;5090086;28;20457;-83
2022/08/20 12:55:58;;;;;;;8.37;6.10;;;;;;;;;;5090527;28;20546;-82
2022/08/20 12:58:26;;;;;;;8.30;6.83;;;;;;;;;;5085214;28;20467;-85
2022/08/20 13:00:53;;;;;;;10.03;6.73;;;;;;;;;;5087199;28;20518;-81
2022/08/20 13:03:20;;;;;;;9.27;6.90;;;;;;;;;;5090556;28;20535;-83
2022/08/20 13:05:48;;;;;;;12.67;8.37;;;;;;;;;;5090996;28;20539;-81
2022/08/20 13:08:18;;;;;;;11.70;7.70;;;;;;;;;;5092463;28;20443;-80
2022/08/20 13:10:45;;;;;;;7.53;6.70;;;;;;;;;;5095615;28;20439;-81
2022/08/20 13:13:13;;;;;;;10.60;6.83;;;;;;;;;;5095284;28;20530;-81
2022/08/20 13:15:40;;;;;;;9.13;6.47;;;;;;;;;;5093420;28;20491;-80
2022/08/20 13:18:08;;;;;;;12.10;6.30;;;;;;;;;;5091332;28;20901;-82
2022/08/20 13:20:35;;;;;;;11.77;6.50;;;;;;;;;;5093008;28;20490;-83
2022/08/20 13:23:03;;;;;;;10.43;5.70;;;;;;;;;;5095487;28;20764;-81
2022/08/20 13:25:41;;;;;;;9.03;5.70;;;;;;;;;;5094384;28;20546;-82
2022/08/20 13:28:08;;;;;;;12.10;5.30;;;;;;;;;;5095535;28;20493;-81
2022/08/20 13:30:37;;;;;;;11.73;5.03;;;;;;;;;;5095797;28;20471;-82
2022/08/20 13:33:05;;;;;;;7.43;4.73;;;;;;;;;;5096251;28;20459;-82
2022/08/20 13:35:32;;;;;;;9.00;5.10;;;;;;;;;;5097328;28;20649;-84
2022/08/20 13:38:00;;;;;;;11.20;5.30;;;;;;;;;;5095939;28;20538;-83
2022/08/20 13:40:27;;;;;;;8.13;4.93;;;;;;;;;;5090805;28;20431;-82
2022/08/20 13:42:56;;;;;;;7.17;4.63;;;;;;;;;;5091791;28;20793;-82
2022/08/20 13:45:23;;;;;;;9.97;4.93;;;;;;;;;;5095012;28;20826;-79
2022/08/20 13:47:52;;;;;;;8.50;4.30;;;;;;;;;;5093253;28;20577;-81
2022/08/20 13:50:21;;;;;;;8.60;4.50;;;;;;;;;;5093781;28;20466;-80
2022/08/20 13:52:48;;;;;;;7.43;4.50;;;;;;;;;;5095276;28;20467;-84
2022/08/20 13:55:16;;;;;;;5.53;3.60;;;;;;;;;;5095036;28;20554;-84
2022/08/20 13:57:44;;;;;;;8.60;3.80;;;;;;;;;;5097147;28;20445;-87
2022/08/20 14:00:15;;;;;;;4.93;3.60;;;;;;;;;;5095531;28;20473;-87
2022/08/20 14:02:43;;;;;;;15.47;4.27;;;;;;;;;;5089424;28;20986;-84
2022/08/20 14:05:10;;;;;;;5.40;3.50;;;;;;;;;;5091120;28;20546;-84
2022/08/20 14:07:38;;;;;;;10.13;3.57;;;;;;;;;;5093837;28;20510;-85
2022/08/20 14:10:07;;;;;;;4.37;2.87;;;;;;;;;;5094520;28;20447;-86
2022/08/20 14:12:34;;;;;;;6.37;3.07;;;;;;;;;;5094859;28;20522;-83
2022/08/20 14:15:02;;;;;;;6.33;3.33;;;;;;;;;;5094980;28;20527;-83
2022/08/20 14:17:31;;;;;;;6.63;3.30;;;;;;;;;;5094735;28;20459;-85
2022/08/20 14:19:59;;;;;;;4.80;2.60;;;;;;;;;;5094597;28;20523;-83
2022/08/20 14:22:26;;;;;;;4.77;2.53;;;;;;;;;;5096546;28;20531;-83
2022/08/20 14:24:58;;;;;;;8.80;2.50;;;;;;;;;;5090310;28;20457;-87
2022/08/20 14:27:25;;;;;;;5.10;3.10;;;;;;;;;;5090327;28;20583;-80
2022/08/20 14:29:52;;;;;;;6.67;3.30;;;;;;;;;;5093685;28;20530;-85
2022/08/20 14:32:20;;;;;;;6.50;2.90;;;;;;;;;;5093911;28;20519;-87
2022/08/20 14:34:48;;;;;;;7.17;2.50;;;;;;;;;;5093842;28;20503;-84
2022/08/20 14:37:16;;;;;;;5.70;3.20;;;;;;;;;;5094838;28;20834;-84
2022/08/20 14:39:44;;;;;;;6.77;3.23;;;;;;;;;;5092914;28;20534;-84
2022/08/20 14:42:14;;;;;;;5.90;3.13;;;;;;;;;;5095277;28;20428;-84
2022/08/20 14:44:41;;;;;;;8.87;2.90;;;;;;;;;;5095827;28;20477;-83
2022/08/20 14:47:10;;;;;;;6.97;3.40;;;;;;;;;;5089978;28;20574;-88
2022/08/20 14:49:38;;;;;;;4.30;2.70;;;;;;;;;;5089816;28;20428;-86
2022/08/20 14:52:07;;;;;;;6.43;2.93;;;;;;;;;;5092664;28;20444;-88
2022/08/20 14:54:34;;;;;;;4.07;3.00;;;;;;;;;;5093384;28;20890;-86